createdAt,value
2018-12-20T00:03:24.453Z,3.80
2018-12-20T00:08:29.119Z,3.70
2018-12-20T00:13:33.213Z,3.60
2018-12-20T00:18:37.398Z,3.50
2018-12-20T00:23:41.802Z,3.50
2018-12-20T00:28:46.374Z,3.40
2018-12-20T00:33:50.875Z,3.40
2018-12-20T00:38:55.320Z,3.40
2018-12-20T00:43:59.738Z,3.20
2018-12-20T00:49:03.963Z,3.20
2018-12-20T00:54:08.725Z,3.20
2018-12-20T00:59:13.240Z,3.10
2018-12-20T01:04:17.698Z,3.10
2018-12-20T01:09:22.380Z,3.00
2018-12-20T01:14:27.018Z,3.10
2018-12-20T01:19:31.269Z,3.20
2018-12-20T01:24:35.349Z,3.20
2018-12-20T01:29:39.416Z,3.10
2018-12-20T01:34:43.541Z,3.10
2018-12-20T01:39:48.008Z,3.00
2018-12-20T01:44:53.559Z,3.00
2018-12-20T01:49:58.975Z,3.10
2018-12-20T01:55:03.045Z,3.10
2018-12-20T02:00:10.366Z,3.20
2018-12-20T02:05:15.023Z,3.20
2018-12-20T02:10:19.694Z,3.20
2018-12-20T02:15:24.029Z,3.20
2018-12-20T02:20:28.159Z,3.20
2018-12-20T02:25:32.413Z,3.30
2018-12-20T02:30:37.321Z,3.40
2018-12-20T02:35:41.653Z,3.40
2018-12-20T02:40:45.828Z,3.40
2018-12-20T02:45:49.894Z,3.40
2018-12-20T02:50:54.275Z,3.30
2018-12-20T02:55:59.167Z,3.30
2018-12-20T03:01:03.785Z,3.30
2018-12-20T03:06:08.334Z,3.30
2018-12-20T03:11:12.673Z,3.30
2018-12-20T03:16:17.002Z,3.30
2018-12-20T03:21:21.090Z,3.40
2018-12-20T03:26:25.684Z,3.30
2018-12-20T03:31:30.457Z,3.20
2018-12-20T03:36:35.230Z,3.10
2018-12-20T03:41:41.031Z,3.10
2018-12-20T03:46:45.934Z,3.20
2018-12-20T03:51:51.229Z,3.20
2018-12-20T03:56:55.894Z,3.20
2018-12-20T04:02:00.544Z,3.20
2018-12-20T04:07:04.986Z,3.10
2018-12-20T04:12:09.369Z,3.20
2018-12-20T04:17:13.615Z,3.20
2018-12-20T04:22:18.308Z,3.20
2018-12-20T04:27:22.584Z,3.30
2018-12-20T04:32:26.708Z,3.60
2018-12-20T04:37:30.797Z,3.80
2018-12-20T04:42:35.386Z,4.00
2018-12-20T04:47:39.964Z,4.00
2018-12-20T04:52:44.759Z,4.00
2018-12-20T04:57:49.461Z,4.20
2018-12-20T05:02:53.769Z,4.30
2018-12-20T05:07:58.698Z,4.30
2018-12-20T05:13:03.403Z,4.30
2018-12-20T05:18:08.875Z,4.30
2018-12-20T05:23:13.101Z,4.30
2018-12-20T05:28:17.815Z,4.30
2018-12-20T05:33:22.176Z,4.30
2018-12-20T05:38:26.270Z,4.40
2018-12-20T05:43:30.369Z,4.40
2018-12-20T05:48:34.816Z,4.40
2018-12-20T05:53:39.418Z,4.50
2018-12-20T05:58:44.599Z,4.60
2018-12-20T06:03:49.470Z,4.70
2018-12-20T06:08:53.702Z,4.80
2018-12-20T06:13:58.775Z,4.80
2018-12-20T06:19:03.148Z,4.90
2018-12-20T06:24:07.454Z,5.00
2018-12-20T06:29:11.597Z,5.10
2018-12-20T06:34:15.942Z,5.10
2018-12-20T06:39:20.127Z,5.20
2018-12-20T06:44:24.199Z,5.20
2018-12-20T06:49:28.880Z,5.30
2018-12-20T06:54:32.956Z,5.20
2018-12-20T06:59:37.263Z,5.30
2018-12-20T07:04:41.424Z,5.30
2018-12-20T07:09:45.497Z,5.40
2018-12-20T07:14:49.567Z,5.40
2018-12-20T07:19:53.796Z,5.40
2018-12-20T07:24:57.879Z,5.40
2018-12-20T07:30:02.507Z,5.40
2018-12-20T07:35:07.326Z,5.30
2018-12-20T07:40:11.539Z,5.20
2018-12-20T07:45:15.595Z,5.10
2018-12-20T07:50:19.816Z,4.90
2018-12-20T07:55:23.860Z,4.80
2018-12-20T08:00:29.987Z,4.60
2018-12-20T08:05:34.074Z,4.60
2018-12-20T08:10:38.199Z,4.70
2018-12-20T08:15:42.339Z,4.90
2018-12-20T08:20:46.931Z,5.00
2018-12-20T08:25:50.998Z,5.10
2018-12-20T08:30:55.093Z,5.10
2018-12-20T08:35:59.216Z,5.20
2018-12-20T08:41:03.303Z,5.30
2018-12-20T08:46:07.845Z,5.40
2018-12-20T08:51:11.924Z,5.50
2018-12-20T08:56:16.011Z,5.60
2018-12-20T09:01:20.108Z,5.60
2018-12-20T09:06:24.226Z,5.80
2018-12-20T09:11:28.538Z,5.90
2018-12-20T09:16:32.611Z,6.00
2018-12-20T09:21:36.664Z,6.10
2018-12-20T09:26:40.737Z,6.20
2018-12-20T09:31:44.796Z,6.30
2018-12-20T09:36:48.867Z,6.50
2018-12-20T09:41:52.937Z,6.50
2018-12-20T09:47:02.416Z,6.60
2018-12-20T09:52:06.527Z,6.60
2018-12-20T09:57:11.232Z,6.60
2018-12-20T10:02:15.327Z,6.70
2018-12-20T10:07:20.159Z,6.70
2018-12-20T10:12:24.291Z,6.80
2018-12-20T10:17:28.411Z,6.80
2018-12-20T10:22:32.483Z,6.90
2018-12-20T10:27:36.564Z,6.90
2018-12-20T10:32:40.645Z,7.00
2018-12-20T10:37:44.735Z,7.00
2018-12-20T10:42:48.827Z,7.10
2018-12-20T10:47:57.145Z,7.10
2018-12-20T10:53:13.125Z,7.20
2018-12-20T10:58:22.016Z,7.20
2018-12-20T11:03:31.391Z,7.30
2018-12-20T11:08:37.728Z,7.30
2018-12-20T11:13:42.651Z,7.30
2018-12-20T11:18:46.786Z,7.30
2018-12-20T11:23:50.896Z,7.20
2018-12-20T11:28:55.135Z,7.20
2018-12-20T11:33:59.206Z,7.30
2018-12-20T11:39:08.466Z,7.30
2018-12-20T11:44:11.268Z,7.40
2018-12-20T11:49:15.397Z,7.50
2018-12-20T11:54:19.478Z,7.60
2018-12-20T11:59:23.538Z,7.60
2018-12-20T12:04:27.643Z,7.60
2018-12-20T12:09:31.736Z,7.60
2018-12-20T12:14:35.835Z,7.50
2018-12-20T12:19:40.393Z,7.50
2018-12-20T12:24:45.565Z,7.50
2018-12-20T12:29:49.661Z,7.60
2018-12-20T12:34:53.714Z,7.60
2018-12-20T12:39:58.227Z,7.60
2018-12-20T12:45:03.769Z,7.50
2018-12-20T12:50:08.442Z,7.60
2018-12-20T12:55:12.557Z,7.70
2018-12-20T13:00:20.346Z,7.90
2018-12-20T13:05:24.692Z,8.00
2018-12-20T13:10:28.755Z,8.00
2018-12-20T13:15:32.829Z,8.00
2018-12-20T13:20:36.906Z,8.10
2018-12-20T13:25:40.971Z,8.00
2018-12-20T13:30:45.062Z,7.90
2018-12-20T13:35:49.131Z,7.90
2018-12-20T13:40:53.212Z,7.80
2018-12-20T13:45:57.288Z,7.80
2018-12-20T13:51:01.369Z,7.70
2018-12-20T13:56:06.123Z,7.70
2018-12-20T14:01:10.232Z,7.80
2018-12-20T14:06:14.785Z,7.70
2018-12-20T14:11:18.843Z,7.50
2018-12-20T14:16:22.916Z,7.40
2018-12-20T14:21:26.999Z,7.30
2018-12-20T14:26:31.142Z,7.20
2018-12-20T14:31:35.273Z,7.20
2018-12-20T14:36:39.354Z,7.30
2018-12-20T14:41:43.456Z,7.30
2018-12-20T14:46:47.541Z,7.30
2018-12-20T14:51:51.650Z,7.30
2018-12-20T14:56:55.704Z,7.30
2018-12-20T15:01:59.755Z,7.30
2018-12-20T15:07:03.828Z,7.20
2018-12-20T15:12:07.923Z,7.10
2018-12-20T15:17:11.988Z,7.00
2018-12-20T15:22:16.066Z,7.00
2018-12-20T15:27:20.195Z,7.00
2018-12-20T15:32:24.529Z,7.00
2018-12-20T15:37:28.642Z,7.00
2018-12-20T15:42:34.975Z,7.00
2018-12-20T15:47:39.151Z,7.00
2018-12-20T15:52:43.524Z,7.00
2018-12-20T15:57:47.591Z,7.00
2018-12-20T16:02:51.695Z,7.00
2018-12-20T16:08:00.122Z,7.00
2018-12-20T16:13:05.061Z,7.10
2018-12-20T16:18:09.157Z,7.10
2018-12-20T16:23:13.866Z,7.20
2018-12-20T16:33:33.139Z,7.20
2018-12-20T16:38:37.550Z,7.20
2018-12-20T16:43:41.624Z,7.20
2018-12-20T16:48:45.803Z,7.10
2018-12-20T16:53:49.898Z,7.00
2018-12-20T16:58:54.017Z,6.90
2018-12-20T17:03:58.199Z,6.80
2018-12-20T17:09:02.643Z,6.70
2018-12-20T17:14:06.753Z,6.70
2018-12-20T17:19:10.923Z,6.70
2018-12-20T17:24:15.433Z,6.60
2018-12-20T17:29:19.614Z,6.60
2018-12-20T17:34:24.524Z,6.60
2018-12-20T17:39:28.642Z,6.60
2018-12-20T17:44:32.734Z,6.60
2018-12-20T17:49:36.845Z,6.60
2018-12-20T17:54:41.387Z,6.60
2018-12-20T17:59:45.530Z,6.70
2018-12-20T18:04:49.942Z,6.70
2018-12-20T18:09:54.851Z,6.60
2018-12-20T18:15:01.381Z,6.60
2018-12-20T18:20:08.784Z,6.60
2018-12-20T18:25:13.220Z,6.60
2018-12-20T18:30:17.369Z,6.70
2018-12-20T18:35:21.458Z,6.70
2018-12-20T18:40:27.087Z,6.80
2018-12-20T18:45:31.186Z,6.80
2018-12-20T18:50:35.286Z,6.80
2018-12-20T18:55:39.779Z,6.70
2018-12-20T19:00:44.233Z,6.80
2018-12-20T19:05:48.381Z,6.80
2018-12-20T19:10:52.833Z,6.80
2018-12-20T19:15:56.896Z,6.80
2018-12-20T19:21:01.032Z,6.80
2018-12-20T19:26:05.235Z,6.80
2018-12-20T19:31:09.324Z,6.80
2018-12-20T19:36:13.381Z,6.80
2018-12-20T19:41:17.426Z,6.90
2018-12-20T19:46:21.468Z,6.90
2018-12-20T19:51:25.515Z,6.90
2018-12-20T19:56:29.575Z,7.00
2018-12-20T20:01:33.636Z,7.00
2018-12-20T20:06:37.731Z,6.90
2018-12-20T20:11:41.783Z,7.00
2018-12-20T20:16:50.582Z,6.90
2018-12-20T20:21:52.401Z,6.80
2018-12-20T20:26:56.513Z,6.80
2018-12-20T20:32:01.930Z,6.80
2018-12-20T20:37:05.960Z,6.70
2018-12-20T20:42:10.014Z,6.80
2018-12-20T20:47:14.056Z,6.80
2018-12-20T20:52:18.177Z,6.80
2018-12-20T20:57:22.334Z,6.80
2018-12-20T21:02:26.389Z,6.80
2018-12-20T21:07:30.396Z,6.80
2018-12-20T21:12:34.522Z,6.80
2018-12-20T21:17:38.581Z,6.80
2018-12-20T21:22:42.672Z,6.90
2018-12-20T21:27:46.761Z,6.90
2018-12-20T21:32:50.777Z,6.90
2018-12-20T21:37:55.245Z,6.90
2018-12-20T21:42:59.372Z,6.90
2018-12-20T21:48:03.436Z,7.00
2018-12-20T21:53:07.541Z,7.00
2018-12-20T21:58:11.623Z,7.00
2018-12-20T22:03:15.759Z,7.00
2018-12-20T22:08:19.884Z,7.00
2018-12-20T22:13:24.606Z,7.00
2018-12-20T22:18:28.736Z,6.90
2018-12-20T22:23:32.742Z,6.80
2018-12-20T22:28:36.798Z,6.90
2018-12-20T22:33:40.947Z,6.80
2018-12-20T22:38:45.516Z,6.90
2018-12-20T22:43:49.615Z,6.90
2018-12-20T22:48:55.871Z,6.90
2018-12-20T22:53:59.935Z,6.80
2018-12-20T22:59:04.466Z,6.80
2018-12-20T23:04:08.951Z,6.70
2018-12-20T23:09:13.785Z,6.70
2018-12-20T23:14:18.079Z,6.70
2018-12-20T23:19:22.218Z,6.70
2018-12-20T23:24:26.325Z,6.60
2018-12-20T23:29:30.567Z,6.70
2018-12-20T23:34:36.020Z,6.70
2018-12-20T23:39:41.794Z,6.70
2018-12-20T23:44:46.249Z,6.70
2018-12-20T23:49:50.343Z,6.80
2018-12-20T23:54:54.450Z,6.70
2018-12-20T23:59:59.693Z,6.70
